Seven Oaks, Texas
Current Conditions -  °F | °C
As of 11:53 PM on Friday 19 Dec 2014 (Local Time) from KLFK Reporting Station
Overcast Overcast  
Wind Chill: 51°   Ceiling: 600
Heat Index: 51°   Visibility: 7mi
Dew Point: 46°   Wind: 6mph
Humidity: 83%   Direction: 20°NNE
Pressure: 30.17"   Gusts: NA
Location:  30.8176°N, 94.8703°W
Report Text: KLFK 200553Z AUTO 02005KT 7SM OVC006 11/08 A3017 RMK AO2 SLP213 60000 T01060078 10117 20106 401330106 50005
Loading
Personal Weather Stations






























Interactive Weather Map New forecast layout! Learn more

10-Day Weather Forecast

Advertisements
Track Severe Weather on mobile